sensor_id;sensor_type;location;lat;lon;timestamp;P1;durP1;ratioP1;P2;durP2;ratioP2
42332;SDS011;27984;51.476;5.702;2023-05-03T00:00:54;5.78;;;3.28;;
42332;SDS011;27984;51.476;5.702;2023-05-03T00:03:19;8.48;;;3.58;;
42332;SDS011;27984;51.476;5.702;2023-05-03T00:05:47;8.45;;;3.88;;
42332;SDS011;27984;51.476;5.702;2023-05-03T00:08:13;6.47;;;3.80;;
42332;SDS011;27984;51.476;5.702;2023-05-03T00:10:39;11.82;;;3.55;;
42332;SDS011;27984;51.476;5.702;2023-05-03T00:13:05;5.10;;;3.55;;
42332;SDS011;27984;51.476;5.702;2023-05-03T00:15:31;9.55;;;3.40;;
42332;SDS011;27984;51.476;5.702;2023-05-03T00:17:57;7.75;;;3.60;;
42332;SDS011;27984;51.476;5.702;2023-05-03T00:20:22;5.72;;;3.47;;
42332;SDS011;27984;51.476;5.702;2023-05-03T00:22:49;7.05;;;3.40;;
42332;SDS011;27984;51.476;5.702;2023-05-03T00:25:14;4.70;;;3.67;;
42332;SDS011;27984;51.476;5.702;2023-05-03T00:27:40;8.70;;;3.70;;
42332;SDS011;27984;51.476;5.702;2023-05-03T00:30:06;8.23;;;3.88;;
42332;SDS011;27984;51.476;5.702;2023-05-03T00:32:32;6.05;;;3.47;;
42332;SDS011;27984;51.476;5.702;2023-05-03T00:34:57;11.38;;;3.78;;
42332;SDS011;27984;51.476;5.702;2023-05-03T00:37:23;5.32;;;3.53;;
42332;SDS011;27984;51.476;5.702;2023-05-03T00:39:49;9.90;;;3.85;;
42332;SDS011;27984;51.476;5.702;2023-05-03T00:42:15;7.32;;;4.00;;
42332;SDS011;27984;51.476;5.702;2023-05-03T00:44:40;8.45;;;3.80;;
42332;SDS011;27984;51.476;5.702;2023-05-03T00:47:06;8.68;;;3.65;;
42332;SDS011;27984;51.476;5.702;2023-05-03T00:49:33;7.90;;;3.90;;
42332;SDS011;27984;51.476;5.702;2023-05-03T00:51:58;9.60;;;4.13;;
42332;SDS011;27984;51.476;5.702;2023-05-03T00:54:26;7.05;;;3.72;;
42332;SDS011;27984;51.476;5.702;2023-05-03T00:56:52;8.18;;;3.75;;
42332;SDS011;27984;51.476;5.702;2023-05-03T00:59:18;5.43;;;3.95;;
42332;SDS011;27984;51.476;5.702;2023-05-03T01:01:50;9.77;;;3.92;;
42332;SDS011;27984;51.476;5.702;2023-05-03T01:04:17;10.07;;;3.65;;
42332;SDS011;27984;51.476;5.702;2023-05-03T01:06:51;8.25;;;3.80;;
42332;SDS011;27984;51.476;5.702;2023-05-03T01:09:42;7.75;;;3.53;;
42332;SDS011;27984;51.476;5.702;2023-05-03T01:12:27;9.23;;;4.00;;
42332;SDS011;27984;51.476;5.702;2023-05-03T01:15:16;11.40;;;3.85;;
42332;SDS011;27984;51.476;5.702;2023-05-03T01:17:56;8.70;;;3.75;;
42332;SDS011;27984;51.476;5.702;2023-05-03T01:20:23;5.00;;;3.53;;
42332;SDS011;27984;51.476;5.702;2023-05-03T01:25:23;6.88;;;3.72;;
42332;SDS011;27984;51.476;5.702;2023-05-03T01:27:50;12.10;;;3.80;;
42332;SDS011;27984;51.476;5.702;2023-05-03T01:30:16;5.55;;;3.75;;
42332;SDS011;27984;51.476;5.702;2023-05-03T01:32:45;6.05;;;4.05;;
42332;SDS011;27984;51.476;5.702;2023-05-03T01:38:01;7.47;;;3.85;;
42332;SDS011;27984;51.476;5.702;2023-05-03T01:40:28;8.02;;;3.78;;
42332;SDS011;27984;51.476;5.702;2023-05-03T01:42:56;5.78;;;3.75;;
42332;SDS011;27984;51.476;5.702;2023-05-03T01:45:23;7.10;;;3.80;;
42332;SDS011;27984;51.476;5.702;2023-05-03T01:47:50;7.53;;;3.83;;
42332;SDS011;27984;51.476;5.702;2023-05-03T01:50:15;7.90;;;4.15;;
42332;SDS011;27984;51.476;5.702;2023-05-03T01:52:41;7.68;;;3.95;;
42332;SDS011;27984;51.476;5.702;2023-05-03T01:55:06;5.65;;;3.67;;
42332;SDS011;27984;51.476;5.702;2023-05-03T01:57:32;8.23;;;3.70;;
42332;SDS011;27984;51.476;5.702;2023-05-03T01:59:58;7.68;;;3.67;;
42332;SDS011;27984;51.476;5.702;2023-05-03T02:02:23;8.48;;;3.58;;
42332;SDS011;27984;51.476;5.702;2023-05-03T02:04:50;8.85;;;3.78;;
42332;SDS011;27984;51.476;5.702;2023-05-03T02:07:15;7.60;;;3.53;;
42332;SDS011;27984;51.476;5.702;2023-05-03T02:09:40;8.18;;;4.18;;
42332;SDS011;27984;51.476;5.702;2023-05-03T02:12:06;10.48;;;3.92;;
42332;SDS011;27984;51.476;5.702;2023-05-03T02:14:32;6.30;;;3.92;;
42332;SDS011;27984;51.476;5.702;2023-05-03T02:16:58;7.72;;;3.60;;
42332;SDS011;27984;51.476;5.702;2023-05-03T02:19:24;8.90;;;3.92;;
42332;SDS011;27984;51.476;5.702;2023-05-03T02:21:49;6.50;;;4.00;;
42332;SDS011;27984;51.476;5.702;2023-05-03T02:24:15;8.27;;;3.88;;
42332;SDS011;27984;51.476;5.702;2023-05-03T02:26:41;9.57;;;4.10;;
42332;SDS011;27984;51.476;5.702;2023-05-03T02:29:06;8.52;;;4.05;;
42332;SDS011;27984;51.476;5.702;2023-05-03T02:31:32;7.18;;;4.63;;
42332;SDS011;27984;51.476;5.702;2023-05-03T02:33:57;8.48;;;4.55;;
42332;SDS011;27984;51.476;5.702;2023-05-03T02:36:23;8.32;;;4.30;;
42332;SDS011;27984;51.476;5.702;2023-05-03T02:38:49;10.10;;;4.10;;
42332;SDS011;27984;51.476;5.702;2023-05-03T02:41:15;8.52;;;4.32;;
42332;SDS011;27984;51.476;5.702;2023-05-03T02:43:40;7.07;;;4.22;;
42332;SDS011;27984;51.476;5.702;2023-05-03T02:46:06;8.30;;;4.35;;
42332;SDS011;27984;51.476;5.702;2023-05-03T02:48:31;10.00;;;4.22;;
42332;SDS011;27984;51.476;5.702;2023-05-03T02:50:57;6.03;;;3.88;;
42332;SDS011;27984;51.476;5.702;2023-05-03T02:53:22;7.30;;;4.38;;
42332;SDS011;27984;51.476;5.702;2023-05-03T02:55:48;7.68;;;4.05;;
42332;SDS011;27984;51.476;5.702;2023-05-03T02:58:14;5.57;;;4.22;;
42332;SDS011;27984;51.476;5.702;2023-05-03T03:00:40;9.65;;;4.57;;
42332;SDS011;27984;51.476;5.702;2023-05-03T03:03:05;8.18;;;4.40;;
42332;SDS011;27984;51.476;5.702;2023-05-03T03:05:31;8.52;;;4.03;;
42332;SDS011;27984;51.476;5.702;2023-05-03T03:07:57;8.80;;;4.35;;
42332;SDS011;27984;51.476;5.702;2023-05-03T03:10:22;10.38;;;4.70;;
42332;SDS011;27984;51.476;5.702;2023-05-03T03:12:48;10.23;;;4.93;;
42332;SDS011;27984;51.476;5.702;2023-05-03T03:15:13;8.77;;;5.22;;
42332;SDS011;27984;51.476;5.702;2023-05-03T03:17:39;13.23;;;4.53;;
42332;SDS011;27984;51.476;5.702;2023-05-03T03:20:05;11.57;;;4.80;;
42332;SDS011;27984;51.476;5.702;2023-05-03T03:22:32;7.32;;;4.80;;
42332;SDS011;27984;51.476;5.702;2023-05-03T03:24:58;10.18;;;5.15;;
42332;SDS011;27984;51.476;5.702;2023-05-03T03:27:23;8.45;;;4.80;;
42332;SDS011;27984;51.476;5.702;2023-05-03T03:29:49;11.05;;;5.13;;
42332;SDS011;27984;51.476;5.702;2023-05-03T03:32:15;10.82;;;5.35;;
42332;SDS011;27984;51.476;5.702;2023-05-03T03:34:40;7.75;;;5.30;;
42332;SDS011;27984;51.476;5.702;2023-05-03T03:37:06;9.60;;;5.22;;
42332;SDS011;27984;51.476;5.702;2023-05-03T03:39:31;14.95;;;5.18;;
42332;SDS011;27984;51.476;5.702;2023-05-03T03:41:57;8.85;;;5.13;;
42332;SDS011;27984;51.476;5.702;2023-05-03T03:44:24;9.43;;;4.80;;
42332;SDS011;27984;51.476;5.702;2023-05-03T03:46:49;7.25;;;4.97;;
42332;SDS011;27984;51.476;5.702;2023-05-03T03:49:15;7.97;;;5.30;;
42332;SDS011;27984;51.476;5.702;2023-05-03T03:51:40;16.90;;;5.68;;
42332;SDS011;27984;51.476;5.702;2023-05-03T03:54:06;10.68;;;5.68;;
42332;SDS011;27984;51.476;5.702;2023-05-03T03:56:31;7.63;;;5.13;;
42332;SDS011;27984;51.476;5.702;2023-05-03T03:58:57;8.65;;;4.97;;
42332;SDS011;27984;51.476;5.702;2023-05-03T04:01:22;13.00;;;6.10;;
42332;SDS011;27984;51.476;5.702;2023-05-03T04:03:48;9.23;;;6.07;;
42332;SDS011;27984;51.476;5.702;2023-05-03T04:06:13;11.25;;;5.22;;
42332;SDS011;27984;51.476;5.702;2023-05-03T04:08:39;10.50;;;5.50;;
42332;SDS011;27984;51.476;5.702;2023-05-03T04:11:08;6.63;;;5.47;;
42332;SDS011;27984;51.476;5.702;2023-05-03T04:13:37;12.38;;;5.65;;
42332;SDS011;27984;51.476;5.702;2023-05-03T04:16:03;10.30;;;5.55;;
42332;SDS011;27984;51.476;5.702;2023-05-03T04:18:30;10.40;;;5.38;;
42332;SDS011;27984;51.476;5.702;2023-05-03T04:20:55;9.05;;;5.80;;
42332;SDS011;27984;51.476;5.702;2023-05-03T04:23:21;9.32;;;6.13;;
42332;SDS011;27984;51.476;5.702;2023-05-03T04:25:46;12.25;;;5.70;;
42332;SDS011;27984;51.476;5.702;2023-05-03T04:28:12;8.80;;;5.70;;
42332;SDS011;27984;51.476;5.702;2023-05-03T04:30:39;9.80;;;6.20;;
42332;SDS011;27984;51.476;5.702;2023-05-03T04:33:05;9.35;;;5.88;;
42332;SDS011;27984;51.476;5.702;2023-05-03T04:35:33;11.65;;;6.05;;
42332;SDS011;27984;51.476;5.702;2023-05-03T04:37:58;9.15;;;6.20;;
42332;SDS011;27984;51.476;5.702;2023-05-03T04:40:25;9.35;;;5.60;;
42332;SDS011;27984;51.476;5.702;2023-05-03T04:42:51;9.30;;;6.00;;
42332;SDS011;27984;51.476;5.702;2023-05-03T04:45:16;7.53;;;5.82;;
42332;SDS011;27984;51.476;5.702;2023-05-03T04:47:42;10.15;;;5.78;;
42332;SDS011;27984;51.476;5.702;2023-05-03T04:50:08;10.68;;;6.85;;
42332;SDS011;27984;51.476;5.702;2023-05-03T04:52:34;9.15;;;6.13;;
42332;SDS011;27984;51.476;5.702;2023-05-03T04:55:00;17.10;;;6.63;;
42332;SDS011;27984;51.476;5.702;2023-05-03T04:57:26;12.02;;;6.47;;
42332;SDS011;27984;51.476;5.702;2023-05-03T04:59:51;11.60;;;6.75;;
42332;SDS011;27984;51.476;5.702;2023-05-03T05:02:18;10.40;;;6.22;;
42332;SDS011;27984;51.476;5.702;2023-05-03T05:04:43;10.23;;;6.30;;
42332;SDS011;27984;51.476;5.702;2023-05-03T05:07:09;15.15;;;7.18;;
42332;SDS011;27984;51.476;5.702;2023-05-03T05:09:36;8.30;;;5.90;;
42332;SDS011;27984;51.476;5.702;2023-05-03T05:12:02;10.43;;;6.75;;
42332;SDS011;27984;51.476;5.702;2023-05-03T05:14:29;11.02;;;6.78;;
42332;SDS011;27984;51.476;5.702;2023-05-03T05:16:55;11.57;;;6.57;;
42332;SDS011;27984;51.476;5.702;2023-05-03T05:19:20;11.57;;;6.75;;
42332;SDS011;27984;51.476;5.702;2023-05-03T05:21:46;12.07;;;6.75;;
42332;SDS011;27984;51.476;5.702;2023-05-03T05:24:12;9.85;;;6.05;;
42332;SDS011;27984;51.476;5.702;2023-05-03T05:26:37;7.40;;;6.00;;
42332;SDS011;27984;51.476;5.702;2023-05-03T05:29:03;12.27;;;5.75;;
42332;SDS011;27984;51.476;5.702;2023-05-03T05:31:29;15.95;;;6.43;;
42332;SDS011;27984;51.476;5.702;2023-05-03T05:33:55;9.43;;;6.00;;
42332;SDS011;27984;51.476;5.702;2023-05-03T05:36:21;12.20;;;5.95;;
42332;SDS011;27984;51.476;5.702;2023-05-03T05:38:46;9.77;;;5.13;;
42332;SDS011;27984;51.476;5.702;2023-05-03T05:41:12;10.25;;;6.05;;
42332;SDS011;27984;51.476;5.702;2023-05-03T05:43:37;7.75;;;5.53;;
42332;SDS011;27984;51.476;5.702;2023-05-03T05:46:03;8.38;;;5.30;;
42332;SDS011;27984;51.476;5.702;2023-05-03T05:48:28;11.30;;;5.55;;
42332;SDS011;27984;51.476;5.702;2023-05-03T05:50:54;9.25;;;5.60;;
42332;SDS011;27984;51.476;5.702;2023-05-03T05:53:20;8.52;;;4.88;;
42332;SDS011;27984;51.476;5.702;2023-05-03T05:55:45;9.05;;;4.95;;
42332;SDS011;27984;51.476;5.702;2023-05-03T05:58:11;8.90;;;4.47;;
42332;SDS011;27984;51.476;5.702;2023-05-03T06:00:37;7.45;;;4.55;;
42332;SDS011;27984;51.476;5.702;2023-05-03T06:03:03;8.68;;;4.35;;
42332;SDS011;27984;51.476;5.702;2023-05-03T06:05:29;7.70;;;4.50;;
42332;SDS011;27984;51.476;5.702;2023-05-03T06:07:55;8.88;;;4.30;;
42332;SDS011;27984;51.476;5.702;2023-05-03T06:10:20;8.25;;;4.43;;
42332;SDS011;27984;51.476;5.702;2023-05-03T06:12:46;6.43;;;4.43;;
42332;SDS011;27984;51.476;5.702;2023-05-03T06:15:12;11.75;;;4.25;;
42332;SDS011;27984;51.476;5.702;2023-05-03T06:17:38;6.75;;;4.60;;
42332;SDS011;27984;51.476;5.702;2023-05-03T06:20:03;8.65;;;4.60;;
42332;SDS011;27984;51.476;5.702;2023-05-03T06:22:29;7.50;;;4.40;;
42332;SDS011;27984;51.476;5.702;2023-05-03T06:24:55;8.30;;;4.32;;
42332;SDS011;27984;51.476;5.702;2023-05-03T06:27:21;9.05;;;4.15;;
42332;SDS011;27984;51.476;5.702;2023-05-03T06:29:48;8.40;;;4.32;;
42332;SDS011;27984;51.476;5.702;2023-05-03T06:32:14;8.23;;;4.22;;
42332;SDS011;27984;51.476;5.702;2023-05-03T06:34:39;6.82;;;4.32;;
42332;SDS011;27984;51.476;5.702;2023-05-03T06:37:05;7.28;;;4.00;;
42332;SDS011;27984;51.476;5.702;2023-05-03T06:39:30;12.27;;;4.57;;
42332;SDS011;27984;51.476;5.702;2023-05-03T06:41:56;7.00;;;4.00;;
42332;SDS011;27984;51.476;5.702;2023-05-03T06:44:21;12.07;;;4.35;;
42332;SDS011;27984;51.476;5.702;2023-05-03T06:46:47;9.80;;;4.20;;
42332;SDS011;27984;51.476;5.702;2023-05-03T06:49:13;7.32;;;4.15;;
42332;SDS011;27984;51.476;5.702;2023-05-03T06:51:38;8.48;;;3.78;;
42332;SDS011;27984;51.476;5.702;2023-05-03T06:54:04;5.75;;;3.92;;
42332;SDS011;27984;51.476;5.702;2023-05-03T06:56:34;8.77;;;4.07;;
42332;SDS011;27984;51.476;5.702;2023-05-03T06:59:00;8.75;;;4.07;;
42332;SDS011;27984;51.476;5.702;2023-05-03T07:01:26;7.60;;;4.00;;
42332;SDS011;27984;51.476;5.702;2023-05-03T07:03:52;7.50;;;3.50;;
42332;SDS011;27984;51.476;5.702;2023-05-03T07:06:17;7.53;;;3.97;;
42332;SDS011;27984;51.476;5.702;2023-05-03T07:08:43;8.65;;;4.07;;
42332;SDS011;27984;51.476;5.702;2023-05-03T07:11:08;7.65;;;4.05;;
42332;SDS011;27984;51.476;5.702;2023-05-03T07:13:34;5.28;;;3.60;;
42332;SDS011;27984;51.476;5.702;2023-05-03T07:16:00;9.55;;;3.92;;
42332;SDS011;27984;51.476;5.702;2023-05-03T07:18:25;13.13;;;3.55;;
42332;SDS011;27984;51.476;5.702;2023-05-03T07:20:51;5.80;;;3.30;;
42332;SDS011;27984;51.476;5.702;2023-05-03T07:23:17;8.27;;;3.88;;
42332;SDS011;27984;51.476;5.702;2023-05-03T07:25:42;7.85;;;4.05;;
42332;SDS011;27984;51.476;5.702;2023-05-03T07:28:09;5.53;;;3.40;;
42332;SDS011;27984;51.476;5.702;2023-05-03T07:30:34;6.95;;;3.75;;
42332;SDS011;27984;51.476;5.702;2023-05-03T07:33:00;5.60;;;3.55;;
42332;SDS011;27984;51.476;5.702;2023-05-03T07:35:25;5.88;;;3.38;;
42332;SDS011;27984;51.476;5.702;2023-05-03T07:37:51;6.00;;;3.72;;
42332;SDS011;27984;51.476;5.702;2023-05-03T07:40:17;7.93;;;3.88;;
42332;SDS011;27984;51.476;5.702;2023-05-03T07:42:43;8.43;;;3.60;;
42332;SDS011;27984;51.476;5.702;2023-05-03T07:45:08;8.07;;;3.70;;
42332;SDS011;27984;51.476;5.702;2023-05-03T07:47:34;9.60;;;4.05;;
42332;SDS011;27984;51.476;5.702;2023-05-03T07:50:03;7.57;;;3.42;;
42332;SDS011;27984;51.476;5.702;2023-05-03T07:52:33;6.57;;;3.55;;
42332;SDS011;27984;51.476;5.702;2023-05-03T07:55:00;6.82;;;3.40;;
42332;SDS011;27984;51.476;5.702;2023-05-03T07:57:27;8.27;;;3.78;;
42332;SDS011;27984;51.476;5.702;2023-05-03T07:59:53;6.00;;;3.10;;
42332;SDS011;27984;51.476;5.702;2023-05-03T08:02:19;5.35;;;3.47;;
42332;SDS011;27984;51.476;5.702;2023-05-03T08:04:45;6.30;;;3.42;;
42332;SDS011;27984;51.476;5.702;2023-05-03T08:07:11;6.75;;;3.50;;
42332;SDS011;27984;51.476;5.702;2023-05-03T08:09:37;6.18;;;3.13;;
42332;SDS011;27984;51.476;5.702;2023-05-03T08:12:03;6.65;;;3.10;;
42332;SDS011;27984;51.476;5.702;2023-05-03T08:14:28;6.68;;;3.50;;
42332;SDS011;27984;51.476;5.702;2023-05-03T08:16:54;5.85;;;2.90;;
42332;SDS011;27984;51.476;5.702;2023-05-03T08:19:20;6.88;;;3.20;;
42332;SDS011;27984;51.476;5.702;2023-05-03T08:21:45;5.10;;;2.90;;
42332;SDS011;27984;51.476;5.702;2023-05-03T08:24:11;4.82;;;2.80;;
42332;SDS011;27984;51.476;5.702;2023-05-03T08:26:38;4.95;;;2.75;;
42332;SDS011;27984;51.476;5.702;2023-05-03T08:29:04;6.50;;;3.15;;
42332;SDS011;27984;51.476;5.702;2023-05-03T08:31:31;5.43;;;2.45;;
42332;SDS011;27984;51.476;5.702;2023-05-03T08:33:56;6.80;;;2.75;;
42332;SDS011;27984;51.476;5.702;2023-05-03T08:36:22;8.15;;;2.78;;
42332;SDS011;27984;51.476;5.702;2023-05-03T08:38:48;3.90;;;2.60;;
42332;SDS011;27984;51.476;5.702;2023-05-03T08:41:30;6.85;;;2.95;;
42332;SDS011;27984;51.476;5.702;2023-05-03T08:43:56;6.32;;;2.85;;
42332;SDS011;27984;51.476;5.702;2023-05-03T08:46:23;6.75;;;2.70;;
42332;SDS011;27984;51.476;5.702;2023-05-03T08:48:52;6.32;;;3.05;;
42332;SDS011;27984;51.476;5.702;2023-05-03T08:51:19;6.25;;;2.83;;
42332;SDS011;27984;51.476;5.702;2023-05-03T08:53:46;4.10;;;2.53;;
42332;SDS011;27984;51.476;5.702;2023-05-03T08:56:19;4.88;;;2.75;;
42332;SDS011;27984;51.476;5.702;2023-05-03T08:58:52;6.80;;;2.95;;
42332;SDS011;27984;51.476;5.702;2023-05-03T09:01:18;4.80;;;2.75;;
42332;SDS011;27984;51.476;5.702;2023-05-03T09:03:47;4.30;;;2.50;;
42332;SDS011;27984;51.476;5.702;2023-05-03T09:06:24;4.25;;;2.90;;
42332;SDS011;27984;51.476;5.702;2023-05-03T09:08:53;4.95;;;2.80;;
42332;SDS011;27984;51.476;5.702;2023-05-03T09:11:19;6.15;;;2.80;;
42332;SDS011;27984;51.476;5.702;2023-05-03T09:13:46;5.15;;;2.60;;
42332;SDS011;27984;51.476;5.702;2023-05-03T09:16:14;6.18;;;2.90;;
42332;SDS011;27984;51.476;5.702;2023-05-03T09:18:59;10.57;;;3.17;;
42332;SDS011;27984;51.476;5.702;2023-05-03T09:21:27;5.97;;;2.53;;
42332;SDS011;27984;51.476;5.702;2023-05-03T09:23:53;4.72;;;2.80;;
42332;SDS011;27984;51.476;5.702;2023-05-03T09:26:28;4.68;;;2.55;;
42332;SDS011;27984;51.476;5.702;2023-05-03T09:28:59;4.78;;;2.80;;
42332;SDS011;27984;51.476;5.702;2023-05-03T09:31:26;6.15;;;3.08;;
42332;SDS011;27984;51.476;5.702;2023-05-03T09:33:53;4.40;;;2.67;;
42332;SDS011;27984;51.476;5.702;2023-05-03T09:36:19;4.45;;;2.75;;
42332;SDS011;27984;51.476;5.702;2023-05-03T09:38:45;4.55;;;2.70;;
42332;SDS011;27984;51.476;5.702;2023-05-03T09:41:11;4.35;;;2.67;;
42332;SDS011;27984;51.476;5.702;2023-05-03T09:43:50;6.38;;;2.80;;
42332;SDS011;27984;51.476;5.702;2023-05-03T09:46:17;5.53;;;3.20;;
42332;SDS011;27984;51.476;5.702;2023-05-03T09:48:43;6.07;;;2.67;;
42332;SDS011;27984;51.476;5.702;2023-05-03T09:51:09;11.38;;;3.13;;
42332;SDS011;27984;51.476;5.702;2023-05-03T09:53:36;8.93;;;3.03;;
42332;SDS011;27984;51.476;5.702;2023-05-03T09:56:03;5.28;;;3.03;;
42332;SDS011;27984;51.476;5.702;2023-05-03T09:58:32;5.53;;;3.10;;
42332;SDS011;27984;51.476;5.702;2023-05-03T10:01:00;6.72;;;2.80;;
42332;SDS011;27984;51.476;5.702;2023-05-03T10:03:27;5.72;;;3.20;;
42332;SDS011;27984;51.476;5.702;2023-05-03T10:08:45;7.60;;;3.20;;
42332;SDS011;27984;51.476;5.702;2023-05-03T10:11:16;5.45;;;3.00;;
42332;SDS011;27984;51.476;5.702;2023-05-03T10:13:43;4.88;;;3.17;;
42332;SDS011;27984;51.476;5.702;2023-05-03T10:16:19;7.00;;;3.35;;
42332;SDS011;27984;51.476;5.702;2023-05-03T10:19:01;5.63;;;3.03;;
42332;SDS011;27984;51.476;5.702;2023-05-03T10:21:46;5.35;;;3.10;;
42332;SDS011;27984;51.476;5.702;2023-05-03T10:24:19;5.35;;;2.63;;
42332;SDS011;27984;51.476;5.702;2023-05-03T10:26:45;7.55;;;2.63;;
42332;SDS011;27984;51.476;5.702;2023-05-03T10:31:58;5.15;;;2.70;;
42332;SDS011;27984;51.476;5.702;2023-05-03T10:34:29;3.83;;;2.60;;
42332;SDS011;27984;51.476;5.702;2023-05-03T10:36:56;5.88;;;2.90;;
42332;SDS011;27984;51.476;5.702;2023-05-03T10:39:26;5.82;;;2.67;;
42332;SDS011;27984;51.476;5.702;2023-05-03T10:41:56;4.93;;;3.03;;
42332;SDS011;27984;51.476;5.702;2023-05-03T10:44:32;4.95;;;2.92;;
42332;SDS011;27984;51.476;5.702;2023-05-03T10:47:08;4.78;;;2.80;;
42332;SDS011;27984;51.476;5.702;2023-05-03T10:49:37;5.30;;;3.00;;
42332;SDS011;27984;51.476;5.702;2023-05-03T10:52:02;4.00;;;2.80;;
42332;SDS011;27984;51.476;5.702;2023-05-03T10:54:48;7.20;;;3.10;;
42332;SDS011;27984;51.476;5.702;2023-05-03T10:57:13;4.47;;;2.83;;
42332;SDS011;27984;51.476;5.702;2023-05-03T10:59:46;7.78;;;3.10;;
42332;SDS011;27984;51.476;5.702;2023-05-03T11:02:15;5.25;;;3.00;;
42332;SDS011;27984;51.476;5.702;2023-05-03T11:04:46;8.88;;;2.90;;
42332;SDS011;27984;51.476;5.702;2023-05-03T11:07:20;7.40;;;2.83;;
42332;SDS011;27984;51.476;5.702;2023-05-03T11:09:46;7.28;;;3.55;;
42332;SDS011;27984;51.476;5.702;2023-05-03T11:12:12;6.15;;;3.10;;
42332;SDS011;27984;51.476;5.702;2023-05-03T11:14:40;7.03;;;3.20;;
42332;SDS011;27984;51.476;5.702;2023-05-03T11:17:06;6.53;;;3.10;;
42332;SDS011;27984;51.476;5.702;2023-05-03T11:19:32;8.23;;;3.38;;
42332;SDS011;27984;51.476;5.702;2023-05-03T11:21:57;7.88;;;3.53;;
42332;SDS011;27984;51.476;5.702;2023-05-03T11:24:23;3.95;;;3.10;;
42332;SDS011;27984;51.476;5.702;2023-05-03T11:26:48;8.50;;;3.30;;
42332;SDS011;27984;51.476;5.702;2023-05-03T11:29:14;4.47;;;3.13;;
42332;SDS011;27984;51.476;5.702;2023-05-03T11:31:41;7.32;;;3.15;;
42332;SDS011;27984;51.476;5.702;2023-05-03T11:34:08;4.68;;;3.05;;
42332;SDS011;27984;51.476;5.702;2023-05-03T11:36:34;8.32;;;3.00;;
42332;SDS011;27984;51.476;5.702;2023-05-03T11:39:00;7.28;;;3.13;;
42332;SDS011;27984;51.476;5.702;2023-05-03T11:41:26;6.10;;;2.95;;
42332;SDS011;27984;51.476;5.702;2023-05-03T11:43:52;8.20;;;2.90;;
42332;SDS011;27984;51.476;5.702;2023-05-03T11:46:21;6.35;;;2.90;;
42332;SDS011;27984;51.476;5.702;2023-05-03T11:48:50;6.88;;;3.50;;
42332;SDS011;27984;51.476;5.702;2023-05-03T11:51:20;7.03;;;3.08;;
42332;SDS011;27984;51.476;5.702;2023-05-03T11:53:46;6.78;;;3.13;;
42332;SDS011;27984;51.476;5.702;2023-05-03T11:56:12;6.72;;;3.50;;
42332;SDS011;27984;51.476;5.702;2023-05-03T11:58:52;6.97;;;3.38;;
42332;SDS011;27984;51.476;5.702;2023-05-03T12:01:21;6.28;;;3.30;;
42332;SDS011;27984;51.476;5.702;2023-05-03T12:03:51;8.35;;;3.30;;
42332;SDS011;27984;51.476;5.702;2023-05-03T12:06:25;6.95;;;3.03;;
42332;SDS011;27984;51.476;5.702;2023-05-03T12:08:55;5.20;;;3.00;;
42332;SDS011;27984;51.476;5.702;2023-05-03T12:11:21;5.57;;;3.13;;
42332;SDS011;27984;51.476;5.702;2023-05-03T12:13:56;5.85;;;2.90;;
42332;SDS011;27984;51.476;5.702;2023-05-03T12:16:23;4.07;;;2.40;;
42332;SDS011;27984;51.476;5.702;2023-05-03T12:18:50;5.28;;;2.88;;
42332;SDS011;27984;51.476;5.702;2023-05-03T12:21:20;7.10;;;2.85;;
42332;SDS011;27984;51.476;5.702;2023-05-03T12:23:47;5.82;;;2.70;;
42332;SDS011;27984;51.476;5.702;2023-05-03T12:26:17;6.55;;;3.05;;
42332;SDS011;27984;51.476;5.702;2023-05-03T12:28:44;4.82;;;2.88;;
42332;SDS011;27984;51.476;5.702;2023-05-03T12:31:10;5.60;;;2.80;;
42332;SDS011;27984;51.476;5.702;2023-05-03T12:33:36;4.70;;;2.75;;
42332;SDS011;27984;51.476;5.702;2023-05-03T12:36:02;5.20;;;2.72;;
42332;SDS011;27984;51.476;5.702;2023-05-03T12:38:28;4.57;;;2.80;;
42332;SDS011;27984;51.476;5.702;2023-05-03T12:40:53;4.88;;;3.13;;
42332;SDS011;27984;51.476;5.702;2023-05-03T12:43:19;6.38;;;3.10;;
42332;SDS011;27984;51.476;5.702;2023-05-03T12:45:45;7.70;;;2.92;;
42332;SDS011;27984;51.476;5.702;2023-05-03T12:48:10;4.40;;;2.63;;
42332;SDS011;27984;51.476;5.702;2023-05-03T12:50:37;3.47;;;2.60;;
42332;SDS011;27984;51.476;5.702;2023-05-03T12:53:02;5.63;;;2.90;;
42332;SDS011;27984;51.476;5.702;2023-05-03T12:55:28;6.63;;;2.97;;
42332;SDS011;27984;51.476;5.702;2023-05-03T12:57:58;5.65;;;3.20;;
42332;SDS011;27984;51.476;5.702;2023-05-03T13:00:24;6.03;;;3.17;;
42332;SDS011;27984;51.476;5.702;2023-05-03T13:02:50;4.80;;;3.28;;
42332;SDS011;27984;51.476;5.702;2023-05-03T13:05:16;6.05;;;2.90;;
42332;SDS011;27984;51.476;5.702;2023-05-03T13:07:42;7.28;;;2.80;;
42332;SDS011;27984;51.476;5.702;2023-05-03T13:10:08;6.50;;;2.70;;
42332;SDS011;27984;51.476;5.702;2023-05-03T13:12:34;3.03;;;2.33;;
42332;SDS011;27984;51.476;5.702;2023-05-03T13:15:00;6.25;;;2.65;;
42332;SDS011;27984;51.476;5.702;2023-05-03T13:17:27;5.57;;;2.80;;
42332;SDS011;27984;51.476;5.702;2023-05-03T13:19:54;5.97;;;2.70;;
42332;SDS011;27984;51.476;5.702;2023-05-03T13:22:20;4.60;;;2.78;;
42332;SDS011;27984;51.476;5.702;2023-05-03T13:24:46;5.70;;;3.00;;
42332;SDS011;27984;51.476;5.702;2023-05-03T13:27:13;6.35;;;2.97;;
42332;SDS011;27984;51.476;5.702;2023-05-03T13:29:39;6.45;;;3.00;;
42332;SDS011;27984;51.476;5.702;2023-05-03T13:32:05;5.05;;;3.10;;
42332;SDS011;27984;51.476;5.702;2023-05-03T13:34:32;3.80;;;2.88;;
42332;SDS011;27984;51.476;5.702;2023-05-03T13:36:58;5.35;;;3.30;;
42332;SDS011;27984;51.476;5.702;2023-05-03T13:39:24;7.80;;;3.00;;
42332;SDS011;27984;51.476;5.702;2023-05-03T13:41:50;6.35;;;3.03;;
42332;SDS011;27984;51.476;5.702;2023-05-03T13:44:15;5.93;;;3.22;;
42332;SDS011;27984;51.476;5.702;2023-05-03T13:46:41;5.80;;;2.80;;
42332;SDS011;27984;51.476;5.702;2023-05-03T13:49:07;4.40;;;3.13;;
42332;SDS011;27984;51.476;5.702;2023-05-03T13:51:34;5.88;;;3.10;;
42332;SDS011;27984;51.476;5.702;2023-05-03T13:54:00;5.93;;;3.20;;
42332;SDS011;27984;51.476;5.702;2023-05-03T13:56:27;4.57;;;3.38;;
42332;SDS011;27984;51.476;5.702;2023-05-03T13:58:53;7.75;;;3.00;;
42332;SDS011;27984;51.476;5.702;2023-05-03T14:01:20;6.05;;;3.10;;
42332;SDS011;27984;51.476;5.702;2023-05-03T14:03:50;5.53;;;3.30;;
42332;SDS011;27984;51.476;5.702;2023-05-03T14:06:16;6.32;;;3.13;;
42332;SDS011;27984;51.476;5.702;2023-05-03T14:08:42;7.65;;;3.22;;
42332;SDS011;27984;51.476;5.702;2023-05-03T14:11:11;6.25;;;3.30;;
42332;SDS011;27984;51.476;5.702;2023-05-03T14:13:37;6.97;;;3.30;;
42332;SDS011;27984;51.476;5.702;2023-05-03T14:16:03;7.30;;;3.00;;
42332;SDS011;27984;51.476;5.702;2023-05-03T14:18:29;6.80;;;3.53;;
42332;SDS011;27984;51.476;5.702;2023-05-03T14:20:54;8.07;;;2.80;;
42332;SDS011;27984;51.476;5.702;2023-05-03T14:23:21;6.75;;;3.20;;
42332;SDS011;27984;51.476;5.702;2023-05-03T14:25:48;3.88;;;2.85;;
42332;SDS011;27984;51.476;5.702;2023-05-03T14:28:13;4.88;;;2.80;;
42332;SDS011;27984;51.476;5.702;2023-05-03T14:30:39;7.97;;;3.50;;
42332;SDS011;27984;51.476;5.702;2023-05-03T14:33:05;7.43;;;3.58;;
42332;SDS011;27984;51.476;5.702;2023-05-03T14:35:30;6.22;;;3.67;;
42332;SDS011;27984;51.476;5.702;2023-05-03T14:37:56;7.93;;;3.53;;
42332;SDS011;27984;51.476;5.702;2023-05-03T14:40:21;5.10;;;2.97;;
42332;SDS011;27984;51.476;5.702;2023-05-03T14:42:47;5.03;;;3.40;;
42332;SDS011;27984;51.476;5.702;2023-05-03T14:45:13;6.22;;;3.22;;
42332;SDS011;27984;51.476;5.702;2023-05-03T14:47:39;7.53;;;3.50;;
42332;SDS011;27984;51.476;5.702;2023-05-03T14:50:05;4.68;;;3.00;;
42332;SDS011;27984;51.476;5.702;2023-05-03T14:52:31;6.18;;;3.30;;
42332;SDS011;27984;51.476;5.702;2023-05-03T14:54:57;6.95;;;3.80;;